Time;durP1;ratioP1;P1;durP2;ratioP2;P2;SDS_P1;SDS_P2;PMS_P1;PMS_P2;Temp;Humidity;BMP_temperature;BMP_pressure;BME280_temperature;BME280_humidity;BME280_pressure;Samples;Min_cycle;Max_cycle;Signal;HPM_P1;HPM_P2
2021/03/25 00:00:56;;;;;;;36.78;19.33;;;7.20;1.00;;;;;;5096040;28;20171;-69
2021/03/25 00:03:22;;;;;;;34.38;17.45;;;7.40;1.00;;;;;;5095989;28;20196;-69
2021/03/25 00:05:50;;;;;;;27.73;16.93;;;7.40;1.00;;;;;;5095361;28;20190;-69
2021/03/25 00:08:20;;;;;;;36.90;18.30;;;7.40;1.00;;;;;;5094842;28;20258;-69
2021/03/25 00:10:45;;;;;;;33.50;17.88;;;7.20;1.00;;;;;;5095582;28;20195;-69
2021/03/25 00:13:11;;;;;;;32.17;18.77;;;7.10;1.00;;;;;;5095681;28;20191;-68
2021/03/25 00:15:38;;;;;;;42.40;18.73;;;7.20;1.00;;;;;;5095478;28;20443;-69
2021/03/25 00:18:04;;;;;;;27.45;16.23;;;7.50;1.00;;;;;;5095494;28;20175;-68
2021/03/25 00:20:30;;;;;;;35.40;17.30;;;7.30;1.00;;;;;;5095898;28;20586;-69
2021/03/25 00:22:56;;;;;;;29.63;17.23;;;7.00;1.00;;;;;;5095279;28;20272;-69
2021/03/25 00:25:28;;;;;;;34.17;17.70;;;6.80;1.00;;;;;;5095298;28;20628;-69
2021/03/25 00:27:54;;;;;;;28.97;16.30;;;6.90;1.00;;;;;;5095563;28;20477;-68
2021/03/25 00:30:25;;;;;;;33.00;17.33;;;7.20;1.00;;;;;;5095458;28;20735;-68
2021/03/25 00:32:51;;;;;;;36.80;17.80;;;7.30;1.00;;;;;;5095119;28;20328;-68
2021/03/25 00:35:17;;;;;;;30.60;19.17;;;7.20;1.00;;;;;;5095124;28;20262;-68
2021/03/25 00:37:42;;;;;;;38.23;17.30;;;7.20;1.00;;;;;;5094972;28;20656;-69
2021/03/25 00:40:09;;;;;;;33.13;16.83;;;7.10;1.00;;;;;;5095320;28;20410;-69
2021/03/25 00:42:36;;;;;;;29.65;17.20;;;6.90;1.00;;;;;;5094926;28;20193;-69
2021/03/25 00:45:06;;;;;;;34.40;16.02;;;6.70;1.00;;;;;;5094785;28;20287;-68
2021/03/25 00:47:31;;;;;;;29.70;17.42;;;6.70;1.00;;;;;;5094853;28;20171;-68
2021/03/25 00:49:57;;;;;;;34.07;20.50;;;6.70;1.00;;;;;;5094896;28;20167;-68
2021/03/25 00:52:22;;;;;;;35.50;18.40;;;6.80;1.00;;;;;;5094873;28;20216;-68
2021/03/25 00:54:48;;;;;;;32.93;16.30;;;7.00;1.00;;;;;;5094714;28;20170;-69
2021/03/25 00:57:13;;;;;;;36.77;17.43;;;7.00;1.00;;;;;;5094925;28;20163;-69
2021/03/25 00:59:39;;;;;;;29.27;17.30;;;7.00;1.00;;;;;;5094618;28;20166;-68
2021/03/25 01:02:04;;;;;;;36.03;17.17;;;6.80;1.00;;;;;;5094550;28;20237;-68
2021/03/25 01:04:30;;;;;;;31.30;17.27;;;6.60;1.00;;;;;;5094540;28;20164;-69
2021/03/25 01:06:56;;;;;;;29.70;16.30;;;6.50;1.00;;;;;;5094495;28;20182;-68
2021/03/25 01:09:24;;;;;;;26.17;16.60;;;6.60;1.00;;;;;;5094279;28;20270;-68
2021/03/25 01:11:50;;;;;;;26.65;16.67;;;6.60;1.00;;;;;;5094339;28;20248;-69
2021/03/25 01:14:20;;;;;;;34.47;18.50;;;6.40;1.00;;;;;;5094297;28;20175;-68
2021/03/25 01:16:46;;;;;;;31.33;17.83;;;6.40;30.90;;;;;;5094790;28;20172;-69
2021/03/25 01:19:24;;;;;;;29.75;17.80;;;6.40;1.00;;;;;;5094414;28;20171;-69
2021/03/25 01:21:51;;;;;;;31.70;18.10;;;6.50;2.80;;;;;;5094974;28;20229;-69
2021/03/25 01:24:17;;;;;;;29.80;17.75;;;6.20;1.00;;;;;;5095141;28;20179;-69
2021/03/25 01:26:42;;;;;;;27.92;17.15;;;6.40;60.20;;;;;;5094134;28;20167;-69
2021/03/25 01:29:08;;;;;;;32.57;17.37;;;6.50;8.80;;;;;;5094407;28;20172;-69
2021/03/25 01:31:35;;;;;;;36.80;17.00;;;6.50;1.00;;;;;;5094207;28;20622;-69
2021/03/25 01:34:01;;;;;;;30.42;15.25;;;6.30;1.00;;;;;;5094132;28;20163;-69
2021/03/25 01:36:27;;;;;;;24.67;15.80;;;6.30;1.00;;;;;;5094250;28;20187;-69
2021/03/25 01:38:53;;;;;;;30.00;18.17;;;6.20;19.70;;;;;;5094196;28;20168;-69
2021/03/25 01:41:18;;;;;;;38.67;18.10;;;6.10;52.90;;;;;;5093890;28;20573;-68
2021/03/25 01:43:46;;;;;;;29.53;18.03;;;6.10;60.00;;;;;;5093947;28;20294;-69
2021/03/25 01:46:30;;;;;;;33.60;16.65;;;6.00;99.40;;;;;;5094102;28;20171;-69
2021/03/25 01:48:59;;;;;;;34.95;16.98;;;6.00;99.90;;;;;;5094013;28;20579;-69
2021/03/25 01:51:59;;;;;;;38.67;18.08;;;6.00;99.90;;;;;;5093556;28;20183;-69
2021/03/25 01:55:12;;;;;;;33.38;17.20;;;6.00;98.10;;;;;;5093685;28;20148;-69
2021/03/25 01:58:03;;;;;;;32.50;17.30;;;6.20;56.40;;;;;;5011944;28;20253;-69
2021/03/25 02:00:35;;;;;;;35.60;16.70;;;6.00;46.10;;;;;;5093693;28;20665;-69
2021/03/25 02:03:36;;;;;;;34.70;17.85;;;6.00;91.50;;;;;;5093586;28;20195;-67
2021/03/25 02:06:21;;;;;;;34.65;18.48;;;6.00;99.90;;;;;;5048545;28;20707;-68
2021/03/25 02:09:04;;;;;;;27.92;16.88;;;5.90;99.90;;;;;;5093649;28;20605;-68
2021/03/25 02:11:48;;;;;;;36.13;17.38;;;5.90;96.20;;;;;;5093574;28;20210;-68
2021/03/25 02:14:25;;;;;;;28.23;17.10;;;5.90;95.30;;;;;;5093607;28;20194;-69
2021/03/25 02:17:18;;;;;;;29.13;18.27;;;6.10;99.90;;;;;;5093631;28;20514;-69
2021/03/25 02:19:46;;;;;;;30.98;15.38;;;6.20;67.80;;;;;;5093250;28;20217;-69
2021/03/25 02:22:15;;;;;;;31.05;17.73;;;6.20;32.10;;;;;;5093170;28;20192;-69
2021/03/25 02:25:02;;;;;;;34.22;18.05;;;6.00;39.10;;;;;;5093483;28;20242;-69
2021/03/25 02:27:45;;;;;;;37.42;18.17;;;5.80;99.90;;;;;;5093206;28;20178;-69
2021/03/25 02:30:18;;;;;;;31.95;16.52;;;5.70;99.90;;;;;;5092463;28;20189;-69
2021/03/25 02:32:58;;;;;;;33.60;17.42;;;5.60;99.90;;;;;;5093163;28;20196;-68
2021/03/25 02:35:35;;;;;;;27.17;16.55;;;5.60;99.90;;;;;;5093496;28;20157;-69
2021/03/25 02:38:06;;;;;;;29.13;16.17;;;5.80;99.90;;;;;;5093075;28;20224;-69
2021/03/25 02:40:37;;;;;;;36.88;17.52;;;5.70;99.90;;;;;;5093347;28;20195;-69
2021/03/25 02:43:11;;;;;;;27.55;16.15;;;5.70;99.90;;;;;;5092895;28;20191;-69
2021/03/25 02:45:46;;;;;;;26.95;16.27;;;5.60;99.90;;;;;;5091704;28;20258;-68
2021/03/25 02:48:15;;;;;;;28.33;16.25;;;5.80;99.90;;;;;;5093016;28;20642;-68
2021/03/25 02:50:46;;;;;;;28.55;16.40;;;5.80;99.90;;;;;;5093107;28;20175;-68
2021/03/25 02:53:32;;;;;;;25.60;15.85;;;5.60;99.90;;;;;;5093005;28;20198;-69
2021/03/25 02:56:05;;;;;;;31.20;17.17;;;5.70;99.90;;;;;;5092857;28;20151;-69
2021/03/25 02:58:31;;;;;;;35.40;17.50;;;5.70;99.90;;;;;;5092875;28;20156;-68
2021/03/25 03:01:06;;;;;;;25.97;15.57;;;5.70;99.90;;;;;;5092826;28;20254;-68
2021/03/25 03:03:37;;;;;;;31.27;16.75;;;5.60;99.90;;;;;;5092955;28;20194;-68
2021/03/25 03:06:04;;;;;;;31.23;16.38;;;5.80;99.90;;;;;;5092834;28;20171;-69
2021/03/25 03:08:40;;;;;;;39.20;16.00;;;5.60;96.20;;;;;;5091847;28;20555;-69
2021/03/25 03:11:17;;;;;;;33.92;15.80;;;5.80;99.90;;;;;;5092708;28;20274;-69
2021/03/25 03:13:57;;;;;;;36.90;17.88;;;5.80;99.90;;;;;;5092716;28;20187;-69
2021/03/25 03:16:34;;;;;;;39.95;17.48;;;5.80;96.70;;;;;;5093042;28;20159;-69
2021/03/25 03:19:09;;;;;;;34.20;19.35;;;5.80;99.90;;;;;;5092669;28;20208;-69
2021/03/25 03:21:44;;;;;;;32.70;16.50;;;6.00;99.90;;;;;;5092698;28;20195;-69
2021/03/25 03:24:10;;;;;;;37.75;18.38;;;6.10;99.90;;;;;;5093253;28;20608;-69
2021/03/25 03:26:42;;;;;;;35.42;17.50;;;5.80;79.70;;;;;;5092841;28;20175;-69
2021/03/25 03:29:09;;;;;;;37.85;17.92;;;5.80;99.90;;;;;;5092878;28;20172;-69
2021/03/25 03:31:42;;;;;;;33.28;17.50;;;5.90;99.90;;;;;;5092911;28;20270;-69
2021/03/25 03:34:22;;;;;;;30.95;17.35;;;5.70;99.90;;;;;;5092719;28;20213;-69
2021/03/25 03:36:49;;;;;;;33.90;17.15;;;5.80;99.90;;;;;;5092635;28;20553;-69
2021/03/25 03:39:19;;;;;;;35.50;16.60;;;5.80;99.90;;;;;;5092423;28;20163;-69
2021/03/25 03:41:55;;;;;;;27.17;17.30;;;5.80;99.90;;;;;;5094334;28;20163;-69
2021/03/25 03:44:25;;;;;;;31.08;17.27;;;5.70;99.90;;;;;;5096348;28;20159;-69
2021/03/25 03:46:52;;;;;;;24.60;15.38;;;5.70;99.90;;;;;;5096319;28;20164;-69
2021/03/25 03:49:33;;;;;;;35.40;17.20;;;5.70;99.90;;;;;;5095949;28;20221;-69
2021/03/25 03:52:33;;;;;;;30.17;15.73;;;5.90;99.90;;;;;;5096132;28;20195;-69
2021/03/25 03:54:59;;;;;;;32.75;17.33;;;5.80;99.90;;;;;;5081206;28;20191;-69
2021/03/25 03:57:35;;;;;;;38.53;19.13;;;5.90;94.50;;;;;;5095896;28;20256;-69
2021/03/25 04:00:27;;;;;;;36.15;17.05;;;5.60;68.80;;;;;;5096127;28;20158;-69
2021/03/25 04:02:58;;;;;;;30.48;15.27;;;5.50;99.90;;;;;;5095730;28;20202;-69
2021/03/25 04:05:34;;;;;;;32.10;17.05;;;5.50;99.90;;;;;;5095809;28;20152;-69
2021/03/25 04:08:16;;;;;;;28.25;16.30;;;5.50;99.90;;;;;;5095789;28;20182;-69
2021/03/25 04:10:45;;;;;;;34.22;18.45;;;5.80;99.90;;;;;;5095964;28;20151;-69
2021/03/25 04:13:15;;;;;;;31.88;16.90;;;5.80;99.90;;;;;;5095683;28;20609;-69
2021/03/25 04:15:47;;;;;;;40.03;17.30;;;5.60;76.60;;;;;;5096204;28;20234;-69
2021/03/25 04:18:22;;;;;;;40.38;19.08;;;5.60;99.90;;;;;;5095445;28;20651;-69
2021/03/25 04:20:52;;;;;;;32.40;15.70;;;5.70;99.90;;;;;;5095436;28;20682;-69
2021/03/25 04:23:22;;;;;;;38.58;19.40;;;5.80;73.50;;;;;;5095145;28;20194;-69
2021/03/25 04:26:15;;;;;;;46.28;23.77;;;5.60;59.90;;;;;;5095504;28;20171;-69
2021/03/25 04:29:04;;;;;;;26.75;15.52;;;5.50;99.90;;;;;;5095290;28;20176;-70
2021/03/25 04:31:31;;;;;;;30.30;16.90;;;5.60;99.90;;;;;;5095401;28;20534;-69
2021/03/25 04:33:57;;;;;;;31.17;16.35;;;5.80;99.90;;;;;;5095022;28;20198;-69
2021/03/25 04:36:26;;;;;;;27.42;16.70;;;6.10;99.90;;;;;;5095151;28;20167;-69
2021/03/25 04:38:55;;;;;;;32.60;16.73;;;6.30;7.20;;;;;;5095282;28;20171;-69
2021/03/25 04:41:20;;;;;;;34.15;15.88;;;6.30;1.00;;;;;;5094924;28;20167;-69
2021/03/25 04:43:47;;;;;;;38.13;19.40;;;6.30;1.00;;;;;;5094869;28;20614;-69
2021/03/25 04:46:33;;;;;;;30.73;16.10;;;6.50;1.00;;;;;;5094935;28;20225;-68
2021/03/25 04:49:04;;;;;;;34.53;17.98;;;6.40;1.00;;;;;;5094899;28;20155;-69
2021/03/25 04:51:30;;;;;;;31.25;15.60;;;6.40;9.40;;;;;;5094715;28;20656;-69
2021/03/25 04:54:17;;;;;;;27.20;16.03;;;6.30;1.00;;;;;;5093972;28;20199;-69
2021/03/25 04:56:42;;;;;;;29.73;16.00;;;6.30;1.00;;;;;;5094744;28;20155;-69
2021/03/25 04:59:08;;;;;;;28.23;16.20;;;6.20;1.00;;;;;;5094843;28;20194;-69
2021/03/25 05:01:35;;;;;;;32.87;16.73;;;6.30;1.00;;;;;;5094559;28;20216;-69
2021/03/25 05:04:05;;;;;;;36.78;19.02;;;6.40;1.00;;;;;;5094864;28;20743;-69
2021/03/25 05:06:58;;;;;;;29.65;16.60;;;6.20;1.00;;;;;;5094886;28;20289;-69
2021/03/25 05:09:26;;;;;;;32.65;17.95;;;6.40;1.00;;;;;;5094269;28;20229;-69
2021/03/25 05:11:53;;;;;;;32.08;16.80;;;6.10;3.30;;;;;;5094237;28;20211;-69
2021/03/25 05:14:23;;;;;;;32.15;17.30;;;6.30;1.00;;;;;;5094407;28;20246;-69
2021/03/25 05:16:54;;;;;;;35.47;18.95;;;6.40;1.00;;;;;;5094313;28;20180;-69
2021/03/25 05:19:48;;;;;;;32.83;16.80;;;6.60;1.00;;;;;;5094542;28;20179;-69
2021/03/25 05:22:27;;;;;;;32.20;16.80;;;6.80;1.00;;;;;;5094354;28;20226;-69
2021/03/25 05:25:05;;;;;;;29.33;16.30;;;6.70;1.00;;;;;;5094442;28;20242;-69
2021/03/25 05:28:01;;;;;;;36.28;19.73;;;6.70;1.00;;;;;;5094354;28;20163;-69
2021/03/25 05:30:34;;;;;;;24.73;15.00;;;6.80;1.00;;;;;;5094332;28;20209;-69
2021/03/25 05:33:09;;;;;;;25.90;16.65;;;6.80;1.00;;;;;;5093957;28;20187;-68
2021/03/25 05:35:41;;;;;;;33.58;17.80;;;6.70;1.00;;;;;;5094008;28;20143;-68
2021/03/25 05:38:08;;;;;;;38.13;18.13;;;6.60;1.00;;;;;;5094248;28;20162;-69
2021/03/25 05:40:45;;;;;;;33.00;17.33;;;6.40;1.00;;;;;;5093844;28;20175;-68
2021/03/25 05:43:25;;;;;;;29.92;16.65;;;6.70;1.00;;;;;;5093925;28;20221;-69
2021/03/25 05:45:59;;;;;;;33.38;16.00;;;6.90;1.00;;;;;;5094410;28;20162;-69
2021/03/25 05:48:30;;;;;;;29.45;17.65;;;6.90;1.00;;;;;;5094314;28;20159;-69
2021/03/25 05:51:19;;;;;;;29.27;17.35;;;6.90;1.00;;;;;;5094081;28;20640;-68
2021/03/25 05:53:50;;;;;;;34.78;18.17;;;7.00;1.00;;;;;;5093542;28;20267;-68
2021/03/25 05:56:44;;;;;;;32.58;16.55;;;6.90;1.00;;;;;;5093847;28;20147;-69
2021/03/25 05:59:14;;;;;;;35.22;16.02;;;6.90;1.00;;;;;;5094009;28;20201;-69
2021/03/25 06:02:03;;;;;;;27.00;15.93;;;7.10;1.00;;;;;;5093734;28;20167;-69
2021/03/25 06:04:31;;;;;;;31.15;17.77;;;7.20;1.00;;;;;;5093186;28;20152;-69
2021/03/25 06:07:01;;;;;;;31.30;17.80;;;7.30;1.00;;;;;;5093297;28;20175;-68
2021/03/25 06:09:51;;;;;;;33.38;17.30;;;7.10;1.00;;;;;;5093070;28;20656;-69
2021/03/25 06:12:45;;;;;;;33.95;17.52;;;7.20;1.00;;;;;;5093371;28;20233;-69
2021/03/25 06:15:33;;;;;;;29.25;17.13;;;7.30;1.00;;;;;;5093245;28;20724;-69
2021/03/25 06:18:41;;;;;;;33.28;17.20;;;7.10;1.00;;;;;;5093453;28;20167;-69
2021/03/25 06:21:36;;;;;;;32.97;17.95;;;7.30;1.00;;;;;;5093168;28;20632;-69
2021/03/25 06:24:16;;;;;;;30.92;17.45;;;7.30;1.00;;;;;;5092919;28;20155;-68
2021/03/25 06:27:12;;;;;;;38.92;18.35;;;7.10;1.00;;;;;;5093011;28;20158;-69
2021/03/25 06:29:46;;;;;;;35.97;17.60;;;7.30;1.00;;;;;;5092827;28;20159;-69
2021/03/25 06:32:34;;;;;;;31.98;16.52;;;7.40;1.00;;;;;;5092807;28;20214;-69
2021/03/25 06:35:12;;;;;;;30.70;17.55;;;7.50;1.00;;;;;;5092891;28;20175;-68
2021/03/25 06:37:42;;;;;;;33.75;17.88;;;7.50;1.00;;;;;;5092853;28;20162;-69
2021/03/25 06:40:16;;;;;;;35.22;17.05;;;7.70;1.00;;;;;;5092712;28;20186;-69
2021/03/25 06:43:03;;;;;;;32.05;17.20;;;7.60;1.00;;;;;;5092337;28;20193;-69
2021/03/25 06:45:34;;;;;;;30.88;17.88;;;7.70;1.00;;;;;;5092729;28;20159;-69
2021/03/25 06:48:06;;;;;;;35.22;17.88;;;7.70;1.00;;;;;;5092583;28;20155;-69
2021/03/25 06:50:53;;;;;;;32.72;16.77;;;7.70;1.00;;;;;;5092487;28;20168;-69
2021/03/25 06:53:32;;;;;;;29.20;15.60;;;7.70;1.00;;;;;;5092879;28;20282;-69
2021/03/25 06:56:04;;;;;;;28.65;15.77;;;7.90;1.00;;;;;;5092491;28;20160;-69
2021/03/25 06:58:38;;;;;;;37.10;17.75;;;8.00;1.00;;;;;;5092764;28;20162;-69
2021/03/25 07:01:16;;;;;;;24.67;15.50;;;8.10;1.00;;;;;;5092287;28;20156;-69
2021/03/25 07:03:42;;;;;;;26.30;15.40;;;8.10;1.00;;;;;;5092440;28;20233;-68
2021/03/25 07:06:07;;;;;;;29.00;16.05;;;8.20;1.00;;;;;;5092110;28;20240;-68
2021/03/25 07:08:33;;;;;;;27.53;16.17;;;8.10;1.00;;;;;;5092320;28;20605;-68
2021/03/25 07:11:04;;;;;;;26.30;15.23;;;8.10;1.00;;;;;;5092530;28;20598;-69
2021/03/25 07:13:30;;;;;;;26.50;16.15;;;8.00;1.00;;;;;;5092869;28;20190;-68
2021/03/25 07:15:56;;;;;;;27.83;15.37;;;7.90;1.00;;;;;;5093633;28;20258;-69
2021/03/25 07:18:27;;;;;;;34.87;17.03;;;8.00;1.00;;;;;;5096579;28;20637;-69
2021/03/25 07:21:19;;;;;;;38.08;18.50;;;8.20;1.00;;;;;;5096327;28;20369;-68
2021/03/25 07:23:45;;;;;;;36.58;18.45;;;8.10;1.00;;;;;;5096025;28;20271;-68
2021/03/25 07:26:34;;;;;;;30.75;17.58;;;8.20;1.00;;;;;;5096404;28;20164;-68
2021/03/25 07:29:11;;;;;;;30.60;17.50;;;8.30;1.00;;;;;;5096642;28;20191;-68
2021/03/25 07:31:55;;;;;;;41.25;18.83;;;8.30;1.00;;;;;;5096421;28;20590;-68
2021/03/25 07:34:45;;;;;;;39.33;18.88;;;8.40;1.00;;;;;;5096138;28;20153;-69
2021/03/25 07:37:14;;;;;;;42.58;20.92;;;8.60;1.00;;;;;;5097062;28;20235;-67
2021/03/25 07:39:49;;;;;;;37.05;20.40;;;8.70;1.00;;;;;;5095590;28;20232;-68
2021/03/25 07:42:30;;;;;;;38.03;22.08;;;8.60;1.00;;;;;;5095840;28;20202;-70
2021/03/25 07:45:15;;;;;;;35.83;21.08;;;8.70;1.00;;;;;;5095810;28;20187;-68
2021/03/25 07:47:41;;;;;;;32.78;19.38;;;8.80;1.00;;;;;;5094213;28;20216;-68
2021/03/25 07:50:19;;;;;;;46.00;19.97;;;8.80;1.00;;;;;;5095350;28;20168;-68
2021/03/25 07:52:45;;;;;;;37.72;21.70;;;8.90;1.00;;;;;;5095424;28;20632;-69
2021/03/25 07:55:16;;;;;;;43.63;20.10;;;8.60;1.00;;;;;;5095934;28;20176;-69
2021/03/25 07:57:44;;;;;;;40.63;22.63;;;8.90;1.00;;;;;;5095733;28;20148;-69
2021/03/25 08:00:23;;;;;;;39.15;21.35;;;9.00;1.00;;;;;;5095758;28;20193;-69
2021/03/25 08:03:12;;;;;;;37.75;19.77;;;9.10;1.00;;;;;;5095588;28;20614;-69
2021/03/25 08:05:38;;;;;;;43.20;22.43;;;9.20;1.00;;;;;;5095515;28;20231;-68
2021/03/25 08:08:17;;;;;;;38.00;22.17;;;9.50;1.00;;;;;;5096057;28;20532;-69
2021/03/25 08:10:45;;;;;;;44.90;25.17;;;9.40;1.00;;;;;;5095724;28;20734;-69
2021/03/25 08:13:19;;;;;;;41.43;23.90;;;9.30;1.00;;;;;;5095549;28;20448;-68
2021/03/25 08:16:05;;;;;;;50.37;27.33;;;9.60;1.00;;;;;;5095348;28;20441;-69
2021/03/25 08:18:45;;;;;;;48.60;28.80;;;9.60;1.00;;;;;;5095485;28;20401;-69
2021/03/25 08:21:28;;;;;;;43.60;25.67;;;9.60;1.00;;;;;;5095490;28;20944;-68
2021/03/25 08:24:31;;;;;;;50.28;27.30;;;9.60;1.00;;;;;;5094868;28;20824;-68
2021/03/25 08:27:13;;;;;;;52.40;28.00;;;9.60;1.00;;;;;;5095195;28;20250;-69
2021/03/25 08:30:06;;;;;;;49.17;28.80;;;9.60;1.00;;;;;;5095368;28;20386;-68
2021/03/25 08:33:05;;;;;;;51.10;29.60;;;9.80;1.00;;;;;;5095047;28;20675;-68
2021/03/25 08:35:48;;;;;;;54.60;30.83;;;10.10;1.00;;;;;;5095064;28;20382;-69
2021/03/25 08:38:31;;;;;;;58.33;29.00;;;10.20;1.00;;;;;;5095116;28;20468;-69
2021/03/25 08:41:05;;;;;;;59.47;33.00;;;10.40;1.00;;;;;;5094976;28;20385;-68
2021/03/25 08:43:43;;;;;;;50.07;30.57;;;10.40;1.00;;;;;;5094789;28;20430;-68
2021/03/25 08:46:26;;;;;;;55.30;33.47;;;10.60;1.00;;;;;;5095170;28;20378;-68
2021/03/25 08:49:01;;;;;;;59.73;31.80;;;10.70;1.00;;;;;;5095477;28;20385;-69
2021/03/25 08:51:33;;;;;;;66.37;36.40;;;10.60;1.00;;;;;;5095078;28;20494;-69
2021/03/25 08:54:07;;;;;;;60.50;34.50;;;10.60;1.00;;;;;;5094168;28;20946;-68
2021/03/25 08:56:40;;;;;;;70.13;35.10;;;10.80;1.00;;;;;;5094213;28;20447;-69
2021/03/25 08:59:36;;;;;;;65.07;34.77;;;10.80;1.00;;;;;;5094525;28;20390;-68
2021/03/25 09:02:25;;;;;;;65.30;34.43;;;10.80;1.00;;;;;;5058689;28;20443;-69
2021/03/25 09:05:03;;;;;;;62.10;35.63;;;10.90;1.00;;;;;;5094151;28;20425;-69
2021/03/25 09:07:30;;;;;;;57.73;33.23;;;10.90;1.00;;;;;;5093852;28;20914;-69
2021/03/25 09:10:00;;;;;;;66.63;34.03;;;11.10;1.00;;;;;;5094237;28;20508;-70
2021/03/25 09:12:30;;;;;;;64.23;36.40;;;11.30;1.00;;;;;;5094250;28;20453;-69
2021/03/25 09:14:57;;;;;;;62.43;34.03;;;11.30;1.00;;;;;;5094199;28;20398;-69
2021/03/25 09:17:27;;;;;;;68.73;37.63;;;10.80;1.00;;;;;;5094100;28;20402;-68
2021/03/25 09:19:55;;;;;;;51.97;33.00;;;11.30;1.00;;;;;;5094130;28;20478;-68
2021/03/25 09:22:46;;;;;;;66.93;35.70;;;11.70;1.00;;;;;;5093839;28;20422;-68
2021/03/25 09:25:20;;;;;;;60.77;34.33;;;11.40;1.00;;;;;;5094198;28;20409;-68
2021/03/25 09:27:59;;;;;;;55.83;34.13;;;11.50;1.00;;;;;;5094066;28;20409;-68
2021/03/25 09:30:43;;;;;;;59.60;34.43;;;11.70;1.00;;;;;;5093829;28;20405;-68
2021/03/25 09:33:43;;;;;;;67.17;33.80;;;11.90;1.00;;;;;;5093396;28;20806;-69
2021/03/25 09:36:17;;;;;;;58.83;34.27;;;12.00;1.00;;;;;;5093490;28;20397;-69
2021/03/25 09:38:48;;;;;;;64.80;36.97;;;12.30;1.00;;;;;;5093426;28;20452;-68
2021/03/25 09:41:35;;;;;;;64.47;37.50;;;12.30;1.00;;;;;;5093623;28;20390;-68
2021/03/25 09:44:10;;;;;;;66.60;38.60;;;12.00;1.00;;;;;;5093139;28;20390;-68
2021/03/25 09:46:45;;;;;;;70.87;41.50;;;11.40;1.00;;;;;;5093533;28;20442;-68
2021/03/25 09:49:18;;;;;;;73.00;45.20;;;11.90;1.00;;;;;;5093758;28;20397;-69
2021/03/25 09:51:45;;;;;;;86.27;44.17;;;12.30;1.00;;;;;;5093258;28;20979;-69
2021/03/25 09:54:24;;;;;;;71.70;46.00;;;12.20;1.00;;;;;;5093640;28;20406;-68
2021/03/25 09:57:21;;;;;;;71.17;40.87;;;12.70;1.00;;;;;;5093358;28;20898;-68
2021/03/25 09:59:59;;;;;;;59.43;39.80;;;12.90;1.00;;;;;;5092200;28;20414;-68
2021/03/25 10:02:40;;;;;;;68.50;40.00;;;13.10;1.00;;;;;;5093289;28;20424;-68
2021/03/25 10:05:27;;;;;;;73.60;42.70;;;13.30;1.00;;;;;;5091841;28;20413;-70
2021/03/25 10:08:04;;;;;;;60.83;40.60;;;13.40;1.00;;;;;;5093592;28;20440;-68
2021/03/25 10:10:35;;;;;;;76.50;45.10;;;13.30;1.00;;;;;;5093175;28;20523;-67
2021/03/25 10:13:01;;;;;;;71.93;44.73;;;13.70;1.00;;;;;;5093037;28;20457;-68
2021/03/25 10:15:42;;;;;;;66.53;40.63;;;13.50;1.00;;;;;;5093198;28;20413;-69
2021/03/25 10:18:17;;;;;;;72.13;43.47;;;13.90;1.00;;;;;;5093246;28;20144;-69
2021/03/25 10:21:00;;;;;;;76.93;43.57;;;13.60;1.00;;;;;;5092796;28;20493;-68
2021/03/25 10:23:37;;;;;;;69.27;44.60;;;13.60;1.00;;;;;;5092850;28;20421;-69
2021/03/25 10:26:12;;;;;;;63.17;42.27;;;13.60;1.00;;;;;;5091646;28;20401;-68
2021/03/25 10:28:41;;;;;;;68.73;44.80;;;13.80;1.00;;;;;;5092869;28;20481;-69
2021/03/25 10:31:14;;;;;;;76.37;45.67;;;13.40;1.00;;;;;;5093132;28;20452;-69
2021/03/25 10:33:41;;;;;;;74.00;44.43;;;13.80;1.00;;;;;;5092799;28;20417;-69
2021/03/25 10:36:11;;;;;;;68.77;41.63;;;14.00;1.00;;;;;;5092922;28;20497;-69
2021/03/25 10:38:57;;;;;;;64.90;42.40;;;14.10;1.00;;;;;;5091655;28;20401;-68
2021/03/25 10:41:33;;;;;;;74.23;41.87;;;14.50;1.00;;;;;;5092825;28;20926;-69
2021/03/25 10:44:15;;;;;;;67.87;43.37;;;15.10;1.00;;;;;;5093104;28;20945;-68
2021/03/25 10:46:40;;;;;;;68.90;41.00;;;15.00;1.00;;;;;;5092887;28;20399;-69
2021/03/25 10:49:13;;;;;;;65.80;41.47;;;15.20;1.00;;;;;;5092862;28;20404;-69
2021/03/25 10:51:42;;;;;;;64.53;41.37;;;15.20;1.00;;;;;;5094946;28;20588;-69
2021/03/25 10:54:46;;;;;;;62.23;41.30;;;15.40;1.00;;;;;;5096781;28;20492;-69
2021/03/25 10:57:17;;;;;;;63.97;41.13;;;15.60;1.00;;;;;;5096763;28;20442;-69
2021/03/25 11:00:00;;;;;;;65.67;41.70;;;14.80;1.00;;;;;;5096889;28;20403;-68
2021/03/25 11:02:29;;;;;;;65.27;41.53;;;14.70;1.00;;;;;;5096985;28;20436;-68
2021/03/25 11:05:03;;;;;;;73.40;42.70;;;14.60;1.00;;;;;;5096433;28;20420;-69
2021/03/25 11:07:29;;;;;;;66.30;41.20;;;15.20;1.00;;;;;;5096692;28;20408;-69
2021/03/25 11:09:57;;;;;;;55.53;40.63;;;14.80;1.00;;;;;;5096628;28;20945;-69
2021/03/25 11:12:30;;;;;;;60.40;39.60;;;15.20;1.00;;;;;;5096437;28;20253;-70
2021/03/25 11:14:59;;;;;;;73.13;41.20;;;15.40;1.00;;;;;;5096700;28;20756;-68
2021/03/25 11:17:31;;;;;;;71.53;41.87;;;15.70;1.00;;;;;;5096201;28;20498;-68
2021/03/25 11:20:10;;;;;;;57.97;39.77;;;15.60;1.00;;;;;;5096901;28;20753;-68
2021/03/25 11:22:36;;;;;;;58.63;38.20;;;16.00;1.00;;;;;;5096471;28;20435;-69
2021/03/25 11:25:06;;;;;;;58.50;38.60;;;15.80;99.90;;;;;;5096246;28;20435;-69
2021/03/25 11:27:31;;;;;;;55.50;38.10;;;14.90;99.90;;;;;;5096817;28;20411;-69
2021/03/25 11:30:22;;;;;;;59.23;39.60;;;14.90;99.90;;;;;;5096835;28;20411;-68
2021/03/25 11:32:48;;;;;;;57.93;37.03;;;15.40;1.00;;;;;;5096363;28;20444;-68
2021/03/25 11:35:35;;;;;;;51.80;35.37;;;15.80;1.00;;;;;;5095941;28;20468;-68
2021/03/25 11:38:27;;;;;;;54.93;36.70;;;16.40;99.90;;;;;;5096170;28;20166;-70
2021/03/25 11:40:59;;;;;;;52.53;35.60;;;16.70;99.90;;;;;;5092681;28;20778;-68
2021/03/25 11:43:45;;;;;;;55.27;38.53;;;16.10;99.90;;;;;;5096115;28;20410;-69
2021/03/25 11:46:31;;;;;;;62.60;36.40;;;15.80;99.90;;;;;;5095987;28;20931;-69
2021/03/25 11:49:07;;;;;;;49.80;35.70;;;15.00;99.90;;;;;;5095737;28;20400;-69
2021/03/25 11:51:37;;;;;;;55.70;35.80;;;15.10;99.90;;;;;;5095698;28;20466;-69
2021/03/25 11:54:27;;;;;;;51.13;32.50;;;15.50;99.90;;;;;;5095420;28;20411;-69
2021/03/25 11:57:21;;;;;;;54.17;36.03;;;14.80;99.90;;;;;;5095590;28;20423;-68
2021/03/25 11:59:46;;;;;;;48.70;34.00;;;14.70;99.90;;;;;;5095797;28;20904;-69
2021/03/25 12:02:20;;;;;;;52.23;34.13;;;15.30;99.90;;;;;;5095050;28;20428;-69
2021/03/25 12:04:47;;;;;;;50.00;34.50;;;15.90;99.90;;;;;;5095542;28;20293;-68
2021/03/25 12:07:12;;;;;;;47.70;34.70;;;16.30;99.90;;;;;;5095751;28;20811;-69
2021/03/25 12:10:20;;;;;;;45.80;34.50;;;16.00;99.90;;;;;;5095330;28;20425;-69
2021/03/25 12:12:47;;;;;;;59.90;35.03;;;16.70;99.90;;;;;;5084856;28;20272;-69
2021/03/25 12:15:13;;;;;;;52.97;35.17;;;16.40;99.90;;;;;;5095408;28;20435;-69
2021/03/25 12:18:05;;;;;;;52.90;36.13;;;17.10;99.90;;;;;;5095122;28;20429;-69
2021/03/25 12:20:37;;;;;;;55.03;35.07;;;17.20;99.90;;;;;;5095115;28;20494;-69
2021/03/25 12:23:35;;;;;;;52.80;36.07;;;18.10;99.90;;;;;;5093526;28;20449;-69
2021/03/25 12:26:04;;;;;;;43.83;34.13;;;17.60;99.90;;;;;;5094730;28;20483;-69
2021/03/25 12:28:30;;;;;;;46.83;36.13;;;17.10;99.90;;;;;;5094677;28;20727;-70
2021/03/25 12:30:56;;;;;;;51.23;36.40;;;17.30;99.90;;;;;;5094797;28;20412;-69
2021/03/25 12:33:25;;;;;;;54.80;39.47;;;17.30;99.90;;;;;;5094268;28;20419;-69
2021/03/25 12:35:52;;;;;;;55.60;37.67;;;17.50;99.90;;;;;;5094067;28;20305;-68
2021/03/25 12:38:19;;;;;;;47.27;37.57;;;16.80;99.90;;;;;;5094847;28;20501;-69
2021/03/25 12:40:44;;;;;;;57.90;38.40;;;17.20;99.90;;;;;;5094751;28;20484;-69
2021/03/25 12:43:15;;;;;;;52.77;37.27;;;17.10;99.90;;;;;;5094523;28;20461;-69
2021/03/25 12:45:43;;;;;;;52.30;35.87;;;17.50;99.90;;;;;;5094735;28;20427;-69
2021/03/25 12:48:09;;;;;;;50.10;37.30;;;18.00;99.90;;;;;;5094881;28;20767;-69
2021/03/25 12:50:35;;;;;;;47.73;31.87;;;16.80;99.90;;;;;;5094395;28;20407;-68
2021/03/25 12:53:02;;;;;;;44.50;35.47;;;16.80;99.90;;;;;;5094222;28;20454;-68
2021/03/25 12:55:28;;;;;;;48.97;33.80;;;16.80;99.90;;;;;;5094778;28;20403;-68
2021/03/25 12:57:55;;;;;;;43.93;33.17;;;16.50;99.90;;;;;;5093002;28;20414;-68
2021/03/25 13:00:31;;;;;;;49.53;32.90;;;17.20;99.90;;;;;;5094373;28;20160;-69
2021/03/25 13:02:56;;;;;;;42.33;32.00;;;17.50;99.90;;;;;;5094087;28;20425;-69
2021/03/25 13:05:22;;;;;;;36.30;27.53;;;17.60;99.90;;;;;;5094343;28;20455;-69
2021/03/25 13:07:48;;;;;;;39.20;24.50;;;17.30;99.90;;;;;;5092655;28;20251;-69
2021/03/25 13:10:17;;;;;;;35.27;24.97;;;17.80;99.90;;;;;;5093754;28;20493;-69
2021/03/25 13:12:43;;;;;;;36.13;26.67;;;17.50;99.90;;;;;;5093899;28;20455;-69
2021/03/25 13:15:08;;;;;;;34.27;25.67;;;18.50;99.90;;;;;;5093091;28;20510;-69
2021/03/25 13:17:34;;;;;;;27.23;22.50;;;19.40;99.90;;;;;;5093811;28;20174;-69
2021/03/25 13:20:00;;;;;;;38.13;24.60;;;18.70;99.90;;;;;;5093818;28;20409;-69